Saiq, Oman
Current Conditions -  °F | °C
As of 3:52 PM on Friday 31 Oct 2014 (Local Time) from EQMN Reporting Station
Overcast Overcast  
Wind Chill: 79°   Ceiling: Unl
Heat Index: 80°   Visibility: 6mi
Dew Point: 63°   Wind: 8mph
Humidity: 57%   Direction: 190°S
Pressure: 29.85"   Gusts: NA
Location:  23.07°N, 57.63°E
Report Text: EQMN 311152Z AUTO 19007KT 9999 VV/// 26/17 Q1011
Loading
Personal Weather Stations






























Interactive Weather Map
Tropical Storm Tracking
New forecast layout! Learn more

10-Day Weather Forecast

Advertisements
Track Severe Weather on mobile